Portada
METAR-TAF:

METAR-TAF

Aeroports :

Casablanca, Marroc

Aeroport de Casablanca

latitud: 33-34N, longitud: 007-40W, altitud: 62 m

Observació

L'informe es va fer fa 1 hora i 53 minuts, a les 20:00 UTC
Vent 6 kt del Nord/Nord-Est
Temperatura 18°C
Humitat 64%
Pressió 1013 hPa
Visibilitat 10 km o més
Escasses núvols a una alçada de 1600 ft
Cel ennuvolat a una alçada de 2600 ft

METAR: GMMC 222000Z 02006KT 9999 FEW016 BKN026 18/11 Q1013

Hora: 22:53 (21:53 UTC)


TAF: manca

Observacions i pronòstics meteorològics de més de 4000 aeroports (METAR i TAF).

Les estacions disponibles són els punts grocs i vermells al mapa.

Posi el ratolí al punt desitjat per veure el nom de l'estació.

Feu clic per veure les observacions i els pronòstics meteorològics.

Per canviar el mapa: feu clic els botons verds amb una creu de color negre per apropar; al botó verd amb un guió per allunyar la imatge; o en les fletxes verdes per a mapes adjacents.


METAR-TAF: